createdAt,value
2022-10-18T00:00:53.103Z,97170.75
2022-10-18T00:03:20.859Z,97163.63
2022-10-18T00:05:49.410Z,97159.41
2022-10-18T00:08:18.238Z,97157.19
2022-10-18T00:10:46.752Z,97154.16
2022-10-18T00:13:14.814Z,97156.59
2022-10-18T00:15:50.743Z,97163.63
2022-10-18T00:18:19.029Z,97171.44
2022-10-18T00:20:47.080Z,97163.22
2022-10-18T00:23:14.767Z,97161.59
2022-10-18T00:25:42.461Z,97158.69
2022-10-18T00:28:10.147Z,97164.31
2022-10-18T00:30:37.896Z,97158.09
2022-10-18T00:33:07.016Z,97163.22
2022-10-18T00:35:36.103Z,97167.03
2022-10-18T00:38:03.879Z,97168.63
2022-10-18T00:40:31.593Z,97165.44
2022-10-18T00:42:59.251Z,97165.75
2022-10-18T00:45:27.085Z,97165.00
2022-10-18T00:48:00.444Z,97162.22
2022-10-18T00:50:33.305Z,97154.78
2022-10-18T00:53:04.659Z,97150.25
2022-10-18T00:55:33.606Z,97149.75
2022-10-18T00:58:02.612Z,97156.66
2022-10-18T01:00:30.299Z,97161.06
2022-10-18T01:02:59.747Z,97168.97
2022-10-18T01:05:28.926Z,97166.34
2022-10-18T01:08:18.569Z,97174.56
2022-10-18T01:10:55.035Z,97168.66
2022-10-18T01:13:32.544Z,97160.53
2022-10-18T01:16:04.229Z,97165.34
2022-10-18T01:18:38.764Z,97157.75
2022-10-18T01:21:21.019Z,97165.56
2022-10-18T01:24:31.772Z,97157.75
2022-10-18T01:27:36.953Z,97167.97
2022-10-18T01:30:36.659Z,97162.25
2022-10-18T01:33:14.494Z,97167.38
2022-10-18T01:35:46.214Z,97170.66
2022-10-18T01:38:18.837Z,97162.53
2022-10-18T01:40:50.501Z,97170.19
2022-10-18T01:43:20.924Z,97169.38
2022-10-18T01:45:49.639Z,97174.38
2022-10-18T01:48:19.452Z,97173.44
2022-10-18T01:50:47.104Z,97166.13
2022-10-18T01:53:30.238Z,97160.09
2022-10-18T01:56:22.416Z,97161.50
2022-10-18T01:58:58.003Z,97164.41
2022-10-18T02:01:34.519Z,97158.41
2022-10-18T02:04:12.544Z,97157.31
2022-10-18T02:06:46.248Z,97164.41
2022-10-18T02:09:19.974Z,97161.72
2022-10-18T02:11:52.294Z,97168.72
2022-10-18T02:14:21.399Z,97164.19
2022-10-18T02:16:51.900Z,97171.03
2022-10-18T02:19:26.931Z,97166.81
2022-10-18T02:21:58.279Z,97164.91
2022-10-18T02:24:32.755Z,97163.50
2022-10-18T02:27:00.491Z,97171.94
2022-10-18T02:29:29.114Z,97168.50
2022-10-18T02:32:05.306Z,97167.19
2022-10-18T02:34:38.963Z,97159.84
2022-10-18T02:37:06.701Z,97159.06
2022-10-18T02:39:36.834Z,97164.19
2022-10-18T02:42:06.746Z,97166.47
2022-10-18T02:44:34.845Z,97168.16
2022-10-18T02:47:03.011Z,97165.03
2022-10-18T02:49:30.724Z,97171.53
2022-10-18T02:51:59.814Z,97174.53
2022-10-18T02:54:27.553Z,97175.84
2022-10-18T02:56:55.361Z,97165.91
2022-10-18T02:59:23.082Z,97167.28
2022-10-18T03:01:50.809Z,97158.88
2022-10-18T03:04:18.685Z,97170.50
2022-10-18T03:06:46.444Z,97163.41
2022-10-18T03:09:15.513Z,97175.03
2022-10-18T03:11:43.176Z,97176.66
2022-10-18T03:14:11.094Z,97177.97
2022-10-18T03:16:38.815Z,97174.84
2022-10-18T03:19:06.599Z,97177.31
2022-10-18T03:21:34.324Z,97172.22
2022-10-18T03:24:02.906Z,97175.28
2022-10-18T03:26:31.959Z,97177.75
2022-10-18T03:28:59.800Z,97185.38
2022-10-18T03:31:27.550Z,97186.97
2022-10-18T03:33:55.279Z,97182.66
2022-10-18T03:36:22.998Z,97184.00
2022-10-18T03:38:50.872Z,97186.63
2022-10-18T03:41:18.599Z,97179.81
2022-10-18T03:43:47.768Z,97185.13
2022-10-18T03:46:15.491Z,97188.38
2022-10-18T03:48:43.214Z,97185.66
2022-10-18T03:51:10.897Z,97195.78
2022-10-18T03:53:38.607Z,97196.34
2022-10-18T03:56:06.883Z,97192.22
2022-10-18T04:01:09.617Z,97181.28
2022-10-18T04:03:37.344Z,97178.03
2022-10-18T04:06:05.219Z,97179.16
2022-10-18T04:08:32.892Z,97176.66
2022-10-18T04:11:00.567Z,97166.03
2022-10-18T04:13:28.264Z,97174.66
2022-10-18T04:15:56.254Z,97163.03
2022-10-18T04:18:25.263Z,97164.88
2022-10-18T04:20:53.031Z,97169.66
2022-10-18T04:23:20.719Z,97160.47
2022-10-18T04:25:48.638Z,97157.16
2022-10-18T04:28:16.312Z,97155.53
2022-10-18T04:30:44.015Z,97157.66
2022-10-18T04:33:11.704Z,97158.97
2022-10-18T04:35:40.784Z,97167.09
2022-10-18T04:38:09.176Z,97161.88
2022-10-18T04:40:36.902Z,97161.41
2022-10-18T04:43:04.630Z,97153.75
2022-10-18T04:45:32.358Z,97154.25
2022-10-18T04:48:00.062Z,97163.50
2022-10-18T04:50:27.907Z,97156.78
2022-10-18T04:52:58.935Z,97151.06
2022-10-18T04:55:26.674Z,97156.97
2022-10-18T04:57:54.360Z,97145.53
2022-10-18T05:00:22.106Z,97147.66
2022-10-18T05:02:49.807Z,97146.56
2022-10-18T05:05:17.588Z,97147.66
2022-10-18T05:07:45.258Z,97151.97
2022-10-18T05:10:14.335Z,97161.94
2022-10-18T05:12:43.682Z,97175.59
2022-10-18T05:15:11.754Z,97166.16
2022-10-18T05:17:39.491Z,97175.38
2022-10-18T05:20:08.390Z,97168.34
2022-10-18T05:22:36.208Z,97176.19
2022-10-18T05:25:04.071Z,97182.41
2022-10-18T05:27:33.172Z,97180.78
2022-10-18T05:30:04.549Z,97170.88
2022-10-18T05:32:33.739Z,97164.56
2022-10-18T05:35:01.712Z,97162.06
2022-10-18T05:37:29.571Z,97162.88
2022-10-18T05:39:57.283Z,97168.81
2022-10-18T05:42:25.047Z,97162.06
2022-10-18T05:44:54.115Z,97162.66
2022-10-18T05:47:21.830Z,97168.38
2022-10-18T05:49:49.670Z,97172.38
2022-10-18T05:52:17.654Z,97168.88
2022-10-18T05:54:45.337Z,97176.13
2022-10-18T05:57:13.034Z,97172.63
2022-10-18T05:59:40.736Z,97173.97
2022-10-18T06:02:10.727Z,97167.13
2022-10-18T06:04:38.419Z,97166.00
2022-10-18T06:07:09.303Z,97168.44
2022-10-18T06:09:37.103Z,97165.41
2022-10-18T06:12:05.790Z,97172.97
2022-10-18T06:14:33.544Z,97168.03
2022-10-18T06:17:01.292Z,97162.81
2022-10-18T06:19:30.352Z,97168.44
2022-10-18T06:21:58.168Z,97167.81
2022-10-18T06:24:26.643Z,97174.25
2022-10-18T06:26:54.385Z,97177.97
2022-10-18T06:29:22.155Z,97175.47
2022-10-18T06:31:50.135Z,97181.09
2022-10-18T06:34:17.861Z,97181.59
2022-10-18T06:36:46.999Z,97178.78
2022-10-18T06:39:14.760Z,97186.31
2022-10-18T06:41:42.444Z,97188.13
2022-10-18T06:44:20.367Z,97186.44
2022-10-18T06:46:49.580Z,97188.50
2022-10-18T06:49:19.202Z,97193.03
2022-10-18T06:51:48.550Z,97191.84
2022-10-18T06:54:18.440Z,97191.72
2022-10-18T06:56:46.571Z,97188.91
2022-10-18T06:59:14.803Z,97193.09
2022-10-18T07:01:43.448Z,97191.88
2022-10-18T07:04:11.253Z,97199.63
2022-10-18T07:06:38.964Z,97193.66
2022-10-18T07:09:08.026Z,97195.28
2022-10-18T07:11:36.054Z,97197.88
2022-10-18T07:14:04.930Z,97197.44
2022-10-18T07:16:33.667Z,97198.50
2022-10-18T07:19:01.560Z,97203.84
2022-10-18T07:21:29.775Z,97201.00
2022-10-18T07:23:57.555Z,97193.25
2022-10-18T07:26:29.086Z,97193.28
2022-10-18T07:28:59.088Z,97193.84
2022-10-18T07:31:27.296Z,97202.56
2022-10-18T07:33:55.319Z,97201.00
2022-10-18T07:36:23.122Z,97195.31
2022-10-18T07:38:52.091Z,97190.22
2022-10-18T07:41:20.244Z,97188.66
2022-10-18T07:43:51.741Z,97189.81
2022-10-18T07:46:20.841Z,97196.72
2022-10-18T07:48:48.555Z,97203.47
2022-10-18T07:51:16.711Z,97209.28
2022-10-18T07:53:44.424Z,97203.88
2022-10-18T07:56:16.158Z,97197.97
2022-10-18T07:58:44.391Z,97191.31
2022-10-18T08:01:14.661Z,97188.91
2022-10-18T08:03:43.476Z,97191.97
2022-10-18T08:06:13.245Z,97185.72
2022-10-18T08:08:42.003Z,97208.03
2022-10-18T08:11:11.632Z,97203.38
2022-10-18T08:13:39.392Z,97202.72
2022-10-18T08:16:09.250Z,97209.94
2022-10-18T08:18:39.135Z,97218.63
2022-10-18T08:21:09.448Z,97217.97
2022-10-18T08:23:37.846Z,97221.19
2022-10-18T08:26:07.560Z,97217.00
2022-10-18T08:28:36.761Z,97221.22
2022-10-18T08:31:05.118Z,97224.56
2022-10-18T08:33:33.287Z,97228.22
2022-10-18T08:36:05.660Z,97226.16
2022-10-18T08:38:33.894Z,97228.22
2022-10-18T08:41:03.168Z,97228.81
2022-10-18T08:43:38.257Z,97226.97
2022-10-18T08:46:06.323Z,97234.50
2022-10-18T08:48:39.933Z,97231.06
2022-10-18T08:51:31.232Z,97227.00
2022-10-18T08:54:05.548Z,97242.84
2022-10-18T08:56:34.485Z,97228.16
2022-10-18T08:59:03.134Z,97232.56
2022-10-18T09:01:39.601Z,97234.56
2022-10-18T09:04:22.947Z,97225.84
2022-10-18T09:07:04.476Z,97229.13
2022-10-18T09:09:39.744Z,97226.09
2022-10-18T09:12:21.974Z,97230.25
2022-10-18T09:15:16.136Z,97229.09
2022-10-18T09:17:56.453Z,97218.75
2022-10-18T09:20:26.492Z,97224.72
2022-10-18T09:22:59.944Z,97229.78
2022-10-18T09:25:36.447Z,97228.75
2022-10-18T09:28:16.943Z,97238.81
2022-10-18T09:30:58.651Z,97230.72
2022-10-18T09:33:36.571Z,97233.50
2022-10-18T09:36:07.063Z,97235.44
2022-10-18T09:38:44.344Z,97236.69
2022-10-18T09:41:17.498Z,97233.91
2022-10-18T09:43:51.777Z,97240.16
2022-10-18T09:46:23.363Z,97232.72
2022-10-18T09:48:54.050Z,97247.22
2022-10-18T09:51:26.030Z,97244.09
2022-10-18T09:54:04.335Z,97242.38
2022-10-18T09:56:40.843Z,97235.78
2022-10-18T09:59:28.953Z,97231.59
2022-10-18T10:01:56.882Z,97238.25
2022-10-18T10:04:24.616Z,97230.75
2022-10-18T10:06:54.300Z,97235.50
2022-10-18T10:09:29.284Z,97226.97
2022-10-18T10:11:58.397Z,97224.53
2022-10-18T10:14:27.743Z,97219.16
2022-10-18T10:16:57.752Z,97226.47
2022-10-18T10:19:29.341Z,97209.59
2022-10-18T10:22:00.827Z,97223.22
2022-10-18T10:24:43.347Z,97222.34
2022-10-18T10:27:19.755Z,97223.47
2022-10-18T10:29:56.487Z,97208.03
2022-10-18T10:35:00.582Z,97206.63
2022-10-18T10:37:35.477Z,97213.09
2022-10-18T10:40:25.257Z,97214.56
2022-10-18T10:43:12.875Z,97201.84
2022-10-18T10:46:00.747Z,97208.03
2022-10-18T10:48:33.415Z,97196.41
2022-10-18T10:51:05.325Z,97190.88
2022-10-18T10:53:46.783Z,97192.44
2022-10-18T10:56:36.254Z,97184.66
2022-10-18T10:59:11.654Z,97181.53
2022-10-18T11:01:39.416Z,97179.44
2022-10-18T11:04:26.331Z,97182.19
2022-10-18T11:07:04.042Z,97181.13
2022-10-18T11:09:49.119Z,97182.53
2022-10-18T11:12:26.503Z,97172.53
2022-10-18T11:15:03.536Z,97165.16
2022-10-18T11:17:36.879Z,97162.56
2022-10-18T11:20:15.223Z,97166.59
2022-10-18T11:22:48.352Z,97151.06
2022-10-18T11:25:17.920Z,97161.66
2022-10-18T11:27:55.816Z,97148.78
2022-10-18T11:30:38.509Z,97152.28
2022-10-18T11:33:18.463Z,97151.41
2022-10-18T11:35:52.656Z,97150.59
2022-10-18T11:38:30.660Z,97145.16
2022-10-18T11:41:19.925Z,97143.63
2022-10-18T11:44:03.027Z,97139.75
2022-10-18T11:46:44.343Z,97145.66
2022-10-18T11:49:33.218Z,97131.19
2022-10-18T11:52:09.473Z,97124.38
2022-10-18T11:54:56.505Z,97137.81
2022-10-18T11:57:41.527Z,97130.63
2022-10-18T12:00:23.124Z,97133.78
2022-10-18T12:03:20.715Z,97121.63
2022-10-18T12:05:51.685Z,97117.69
2022-10-18T12:08:24.424Z,97125.03
2022-10-18T12:11:05.442Z,97122.03
2022-10-18T12:13:37.972Z,97122.69
2022-10-18T12:16:09.369Z,97121.41
2022-10-18T12:18:44.254Z,97120.88
2022-10-18T12:21:14.090Z,97118.38
2022-10-18T12:23:48.904Z,97117.53
2022-10-18T12:26:18.299Z,97112.44
2022-10-18T12:28:56.450Z,97117.66
2022-10-18T12:31:29.967Z,97110.81
2022-10-18T12:34:01.344Z,97109.56
2022-10-18T12:36:48.077Z,97114.06
2022-10-18T12:39:32.267Z,97115.56
2022-10-18T12:42:20.446Z,97107.09
2022-10-18T12:44:48.919Z,97108.50
2022-10-18T12:47:25.485Z,97096.88
2022-10-18T12:49:58.724Z,97092.22
2022-10-18T12:52:28.844Z,97087.66
2022-10-18T12:55:08.017Z,97098.78
2022-10-18T12:58:03.874Z,97092.75
2022-10-18T13:01:09.080Z,97086.59
2022-10-18T13:04:00.899Z,97093.72
2022-10-18T13:07:12.731Z,97094.44
2022-10-18T13:09:44.452Z,97087.00
2022-10-18T13:12:49.056Z,97091.78
2022-10-18T13:15:34.369Z,97091.41
2022-10-18T13:18:10.513Z,97086.34
2022-10-18T13:20:42.821Z,97092.25
2022-10-18T13:23:24.771Z,97085.97
2022-10-18T13:26:03.117Z,97080.84
2022-10-18T13:28:39.621Z,97082.47
2022-10-18T13:31:23.080Z,97080.00
2022-10-18T13:33:50.966Z,97085.38
2022-10-18T13:36:23.614Z,97083.22
2022-10-18T13:39:04.301Z,97083.75
2022-10-18T13:41:57.824Z,97089.59
2022-10-18T13:44:28.484Z,97084.06
2022-10-18T13:47:36.667Z,97088.44
2022-10-18T13:53:12.748Z,97080.38
2022-10-18T13:55:55.863Z,97085.81
2022-10-18T13:58:35.852Z,97086.41
2022-10-18T14:01:20.087Z,97097.19
2022-10-18T14:04:12.461Z,97103.16
2022-10-18T14:06:44.173Z,97104.97
2022-10-18T14:09:32.926Z,97100.72
2022-10-18T14:12:17.615Z,97103.78
2022-10-18T14:14:53.276Z,97103.59
2022-10-18T14:17:31.356Z,97106.38
2022-10-18T14:20:04.416Z,97105.97
2022-10-18T14:22:37.590Z,97102.47
2022-10-18T14:25:20.773Z,97110.88
2022-10-18T14:27:52.221Z,97107.88
2022-10-18T14:30:24.056Z,97109.31
2022-10-18T14:32:54.399Z,97109.00
2022-10-18T14:35:33.300Z,97102.63
2022-10-18T14:38:02.455Z,97101.66
2022-10-18T14:40:34.734Z,97105.16
2022-10-18T14:43:04.132Z,97104.28
2022-10-18T14:45:33.203Z,97103.41
2022-10-18T14:48:08.691Z,97106.81
2022-10-18T14:50:36.459Z,97107.09
2022-10-18T14:53:08.424Z,97109.41
2022-10-18T14:55:38.912Z,97109.78
2022-10-18T14:58:15.146Z,97111.72
2022-10-18T15:00:47.739Z,97115.88
2022-10-18T15:03:18.516Z,97111.47
2022-10-18T15:05:55.199Z,97106.34
2022-10-18T15:08:24.384Z,97111.38
2022-10-18T15:10:52.845Z,97112.91
2022-10-18T15:13:20.735Z,97115.28
2022-10-18T15:15:50.936Z,97104.38
2022-10-18T15:18:22.411Z,97109.00
2022-10-18T15:21:08.337Z,97107.31
2022-10-18T15:23:36.490Z,97101.81
2022-10-18T15:26:06.562Z,97099.53
2022-10-18T15:28:37.962Z,97103.84
2022-10-18T15:31:07.447Z,97104.28
2022-10-18T15:33:35.283Z,97104.56
2022-10-18T15:36:11.016Z,97112.28
2022-10-18T15:38:39.674Z,97105.09
2022-10-18T15:41:38.120Z,97105.38
2022-10-18T15:44:19.091Z,97113.50
2022-10-18T15:46:48.555Z,97108.97
2022-10-18T15:49:50.910Z,97117.06
2022-10-18T15:52:37.859Z,97119.97
2022-10-18T15:55:39.468Z,97113.03
2022-10-18T15:58:12.536Z,97127.25
2022-10-18T16:00:40.384Z,97120.31
2022-10-18T16:03:10.634Z,97110.72
2022-10-18T16:05:39.460Z,97118.31
2022-10-18T16:08:07.485Z,97114.94
2022-10-18T16:10:35.192Z,97109.25
2022-10-18T16:13:02.917Z,97112.50
2022-10-18T16:15:30.668Z,97116.59
2022-10-18T16:17:58.409Z,97118.00
2022-10-18T16:20:27.499Z,97123.25
2022-10-18T16:22:55.187Z,97124.09
2022-10-18T16:25:22.918Z,97126.13
2022-10-18T16:27:50.641Z,97132.88
2022-10-18T16:30:22.030Z,97131.41
2022-10-18T16:32:49.886Z,97133.00
2022-10-18T16:35:17.710Z,97142.16
2022-10-18T16:37:46.915Z,97142.25
2022-10-18T16:40:23.385Z,97141.88
2022-10-18T16:42:51.163Z,97154.53
2022-10-18T16:45:18.948Z,97152.69
2022-10-18T16:47:46.917Z,97159.84
2022-10-18T16:50:17.646Z,97157.69
2022-10-18T16:52:46.726Z,97160.97
2022-10-18T16:55:21.419Z,97161.50
2022-10-18T16:57:51.304Z,97156.91
2022-10-18T17:00:21.937Z,97170.34
2022-10-18T17:02:50.620Z,97166.88
2022-10-18T17:05:19.381Z,97179.97
2022-10-18T17:07:48.528Z,97174.63
2022-10-18T17:10:19.621Z,97171.94
2022-10-18T17:12:47.464Z,97176.38
2022-10-18T17:15:15.188Z,97178.63
2022-10-18T17:17:42.900Z,97188.59
2022-10-18T17:20:17.600Z,97186.72
2022-10-18T17:22:45.312Z,97188.84
2022-10-18T17:25:14.387Z,97189.06
2022-10-18T17:27:42.130Z,97194.34
2022-10-18T17:30:11.661Z,97193.41
2022-10-18T17:32:39.606Z,97196.00
2022-10-18T17:35:07.683Z,97199.56
2022-10-18T17:37:35.703Z,97209.22
2022-10-18T17:40:03.718Z,97213.22
2022-10-18T17:42:32.808Z,97212.78
2022-10-18T17:45:00.584Z,97214.38
2022-10-18T17:47:28.284Z,97212.28
2022-10-18T17:49:56.076Z,97211.06
2022-10-18T17:52:23.785Z,97214.91
2022-10-18T17:54:51.481Z,97211.69
2022-10-18T17:57:19.292Z,97218.31
2022-10-18T17:59:49.545Z,97212.22
2022-10-18T18:02:17.411Z,97212.88
2022-10-18T18:04:45.297Z,97211.75
2022-10-18T18:07:13.059Z,97220.25
2022-10-18T18:09:40.941Z,97220.44
2022-10-18T18:12:08.738Z,97221.09
2022-10-18T18:14:37.871Z,97226.53
2022-10-18T18:17:06.938Z,97229.09
2022-10-18T18:19:34.701Z,97226.53
2022-10-18T18:22:02.472Z,97224.75
2022-10-18T18:24:30.129Z,97226.88
2022-10-18T18:26:58.477Z,97229.78
2022-10-18T18:29:29.161Z,97232.69
2022-10-18T18:31:56.983Z,97225.75
2022-10-18T18:34:26.136Z,97220.94
2022-10-18T18:36:54.086Z,97221.13
2022-10-18T18:39:25.961Z,97227.06
2022-10-18T18:41:54.060Z,97229.81
2022-10-18T18:44:22.418Z,97227.53
2022-10-18T18:46:50.244Z,97224.16
2022-10-18T18:49:17.931Z,97231.03
2022-10-18T18:51:47.464Z,97228.13
2022-10-18T18:54:15.876Z,97222.69
2022-10-18T18:56:43.892Z,97231.03
2022-10-18T18:59:14.061Z,97233.41
2022-10-18T19:01:42.339Z,97231.81
2022-10-18T19:04:11.011Z,97227.16
2022-10-18T19:06:41.529Z,97227.31
2022-10-18T19:09:18.702Z,97224.25
2022-10-18T19:11:47.824Z,97220.41
2022-10-18T19:14:15.724Z,97216.22
2022-10-18T19:16:47.756Z,97215.75
2022-10-18T19:19:17.530Z,97215.41
2022-10-18T19:21:47.243Z,97209.94
2022-10-18T19:24:16.729Z,97207.06
2022-10-18T19:26:47.186Z,97212.88
2022-10-18T19:29:17.710Z,97215.13
2022-10-18T19:31:45.753Z,97208.56
2022-10-18T19:34:15.360Z,97216.28
2022-10-18T19:36:45.103Z,97209.41
2022-10-18T19:39:19.054Z,97215.50
2022-10-18T19:41:47.249Z,97213.91
2022-10-18T19:44:14.954Z,97220.03
2022-10-18T19:46:42.750Z,97216.66
2022-10-18T19:49:10.597Z,97221.00
2022-10-18T19:51:38.708Z,97218.47
2022-10-18T19:54:06.780Z,97223.13
2022-10-18T19:56:35.868Z,97214.16
2022-10-18T19:59:03.643Z,97220.22
2022-10-18T20:01:31.512Z,97226.16
2022-10-18T20:03:59.500Z,97226.63
2022-10-18T20:06:27.285Z,97227.25
2022-10-18T20:08:55.586Z,97227.13
2022-10-18T20:11:26.221Z,97228.72
2022-10-18T20:13:55.900Z,97231.28
2022-10-18T20:16:28.289Z,97232.91
2022-10-18T20:18:57.820Z,97226.78
2022-10-18T20:21:26.428Z,97236.75
2022-10-18T20:23:54.184Z,97236.88
2022-10-18T20:26:23.334Z,97230.81
2022-10-18T20:28:56.235Z,97237.84
2022-10-18T20:31:27.099Z,97237.84
2022-10-18T20:33:56.665Z,97237.56
2022-10-18T20:36:24.739Z,97239.31
2022-10-18T20:38:53.193Z,97234.50
2022-10-18T20:41:23.505Z,97234.03
2022-10-18T20:43:52.468Z,97229.19
2022-10-18T20:46:20.571Z,97227.91
2022-10-18T20:48:50.419Z,97228.72
2022-10-18T20:51:18.488Z,97225.50
2022-10-18T20:53:46.582Z,97227.09
2022-10-18T20:56:15.712Z,97237.38
2022-10-18T20:58:45.479Z,97228.88
2022-10-18T21:01:15.751Z,97231.59
2022-10-18T21:03:45.906Z,97233.53
2022-10-18T21:06:18.303Z,97227.44
2022-10-18T21:08:46.669Z,97239.91
2022-10-18T21:11:15.432Z,97225.66
2022-10-18T21:13:43.140Z,97225.81
2022-10-18T21:16:10.956Z,97228.34
2022-10-18T21:18:40.290Z,97231.22
2022-10-18T21:21:10.211Z,97224.00
2022-10-18T21:23:39.619Z,97230.59
2022-10-18T21:26:08.117Z,97233.31
2022-10-18T21:28:35.943Z,97227.88
2022-10-18T21:31:12.593Z,97231.06
2022-10-18T21:33:41.029Z,97225.00
2022-10-18T21:36:08.938Z,97220.03
2022-10-18T21:38:37.043Z,97211.97
2022-10-18T21:41:10.806Z,97218.53
2022-10-18T21:43:41.144Z,97212.78
2022-10-18T21:46:10.931Z,97213.72
2022-10-18T21:48:39.834Z,97204.41
2022-10-18T21:51:09.079Z,97207.56
2022-10-18T21:53:36.905Z,97206.25
2022-10-18T21:56:11.040Z,97204.66
2022-10-18T21:58:39.919Z,97194.72
2022-10-18T22:01:09.073Z,97197.94
2022-10-18T22:03:37.120Z,97202.56
2022-10-18T22:06:09.240Z,97190.84
2022-10-18T22:08:37.275Z,97192.78
2022-10-18T22:11:05.262Z,97195.50
2022-10-18T22:13:34.631Z,97187.00
2022-10-18T22:16:03.298Z,97193.38
2022-10-18T22:18:31.535Z,97193.19
2022-10-18T22:21:01.452Z,97192.88
2022-10-18T22:23:32.908Z,97188.88
2022-10-18T22:26:04.092Z,97179.41
2022-10-18T22:28:32.041Z,97183.72
2022-10-18T22:31:01.644Z,97180.41
2022-10-18T22:33:29.490Z,97177.81
2022-10-18T22:35:57.331Z,97184.53
2022-10-18T22:38:25.166Z,97183.72
2022-10-18T22:40:52.930Z,97175.84
2022-10-18T22:43:20.631Z,97182.75
2022-10-18T22:45:48.358Z,97179.69
2022-10-18T22:48:17.436Z,97177.97
2022-10-18T22:50:45.168Z,97179.22
2022-10-18T22:53:12.875Z,97180.22
2022-10-18T22:55:40.565Z,97171.75
2022-10-18T22:58:08.299Z,97172.22
2022-10-18T23:03:08.770Z,97162.34
2022-10-18T23:05:39.862Z,97168.09
2022-10-18T23:08:07.969Z,97164.69
2022-10-18T23:10:37.771Z,97172.84
2022-10-18T23:13:05.866Z,97163.91
2022-10-18T23:15:33.809Z,97165.66
2022-10-18T23:18:02.282Z,97166.19
2022-10-18T23:20:30.039Z,97162.66
2022-10-18T23:22:59.288Z,97161.03
2022-10-18T23:25:27.382Z,97155.13
2022-10-18T23:27:55.287Z,97158.63
2022-10-18T23:30:23.036Z,97148.88
2022-10-18T23:32:50.706Z,97149.03
2022-10-18T23:35:18.524Z,97155.69
2022-10-18T23:37:46.249Z,97162.59
2022-10-18T23:40:15.462Z,97158.09
2022-10-18T23:42:43.173Z,97155.84
2022-10-18T23:45:11.391Z,97153.13
2022-10-18T23:47:39.052Z,97156.16
2022-10-18T23:50:07.519Z,97157.09
2022-10-18T23:52:35.298Z,97159.97
2022-10-18T23:55:04.599Z,97157.84
2022-10-18T23:57:33.954Z,97163.09
